createdAt,value
2022-11-16T00:04:39.204Z,9.35
2022-11-16T00:10:03.102Z,9.34
2022-11-16T00:15:28.071Z,9.34
2022-11-16T00:20:57.070Z,9.33
2022-11-16T00:26:23.132Z,9.34
2022-11-16T00:31:48.089Z,9.32
2022-11-16T00:37:22.066Z,9.33
2022-11-16T00:42:49.097Z,9.29
2022-11-16T00:48:15.109Z,9.24
2022-11-16T00:53:40.200Z,9.23
2022-11-16T00:59:08.090Z,9.19
2022-11-16T01:04:40.138Z,9.15
2022-11-16T01:10:05.077Z,9.14
2022-11-16T01:15:34.145Z,9.15
2022-11-16T01:21:00.111Z,9.13
2022-11-16T01:26:24.130Z,9.13
2022-11-16T01:31:52.136Z,9.07
2022-11-16T01:37:17.147Z,9.02
2022-11-16T01:42:43.155Z,8.92
2022-11-16T01:48:11.167Z,8.87
2022-11-16T01:53:36.121Z,8.81
2022-11-16T01:59:01.137Z,8.77
2022-11-16T02:04:29.152Z,8.77
2022-11-16T02:10:11.161Z,8.72
2022-11-16T02:15:41.134Z,8.69
2022-11-16T02:21:32.135Z,8.61
2022-11-16T02:27:19.112Z,8.48
2022-11-16T02:32:51.154Z,8.44
2022-11-16T02:38:20.151Z,8.40
2022-11-16T02:43:50.132Z,8.33
2022-11-16T02:49:23.162Z,8.29
2022-11-16T02:54:49.146Z,8.25
2022-11-16T03:00:17.327Z,8.24
2022-11-16T03:05:49.143Z,8.16
2022-11-16T03:11:37.163Z,8.10
2022-11-16T03:17:06.176Z,8.08
2022-11-16T03:22:42.159Z,8.02
2022-11-16T03:28:14.157Z,7.95
2022-11-16T03:33:46.210Z,7.94
2022-11-16T03:39:20.177Z,7.89
2022-11-16T03:44:46.157Z,7.84
2022-11-16T03:50:11.247Z,7.81
2022-11-16T03:55:39.457Z,7.77
2022-11-16T04:01:04.254Z,7.75
2022-11-16T04:06:42.223Z,7.74
2022-11-16T04:12:22.188Z,7.71
2022-11-16T04:17:59.309Z,7.70
2022-11-16T04:23:38.356Z,7.72
2022-11-16T04:29:05.315Z,7.73
2022-11-16T04:34:43.338Z,7.72
2022-11-16T04:40:09.308Z,7.76
2022-11-16T04:45:50.584Z,7.77
2022-11-16T04:51:21.338Z,7.78
2022-11-16T04:56:46.310Z,7.80
2022-11-16T05:02:18.335Z,7.82
2022-11-16T05:07:54.313Z,7.84
2022-11-16T05:13:23.319Z,7.86
2022-11-16T05:18:52.325Z,7.90
2022-11-16T05:24:30.345Z,7.91
2022-11-16T05:29:58.334Z,7.93
2022-11-16T05:35:26.328Z,7.94
2022-11-16T05:40:51.296Z,7.94
2022-11-16T05:46:16.368Z,7.93
2022-11-16T05:51:44.275Z,7.93
2022-11-16T05:57:11.310Z,7.90
2022-11-16T06:02:36.311Z,7.88
2022-11-16T06:08:13.271Z,7.82
2022-11-16T06:13:42.286Z,7.77
2022-11-16T06:19:09.299Z,7.75
2022-11-16T06:24:36.361Z,7.68
2022-11-16T06:30:01.291Z,7.58
2022-11-16T06:35:26.472Z,7.48
2022-11-16T06:40:59.276Z,7.45
2022-11-16T06:46:31.266Z,7.38
2022-11-16T06:51:56.373Z,7.34
2022-11-16T06:57:31.327Z,7.31
2022-11-16T07:02:57.284Z,7.30
2022-11-16T07:08:22.253Z,7.29
2022-11-16T07:13:50.294Z,7.29
2022-11-16T07:19:14.273Z,7.28
2022-11-16T07:24:47.280Z,7.30
2022-11-16T07:30:16.286Z,7.35
2022-11-16T07:36:02.334Z,7.37
2022-11-16T07:41:28.483Z,7.39
2022-11-16T07:47:09.308Z,7.39
2022-11-16T07:52:34.306Z,7.43
2022-11-16T07:58:06.347Z,7.48
2022-11-16T08:03:34.330Z,7.53
2022-11-16T08:09:07.309Z,7.57
2022-11-16T08:14:32.330Z,7.61
2022-11-16T08:20:00.300Z,7.66
2022-11-16T08:25:27.321Z,7.68
2022-11-16T08:30:56.347Z,7.74
2022-11-16T08:36:25.335Z,7.80
2022-11-16T08:41:53.322Z,7.85
2022-11-16T08:47:18.336Z,7.95
2022-11-16T08:52:48.301Z,8.04
2022-11-16T08:58:13.330Z,8.10
2022-11-16T09:03:38.312Z,8.16
2022-11-16T09:09:06.386Z,8.17
2022-11-16T09:14:30.341Z,8.22
2022-11-16T09:19:55.333Z,8.23
2022-11-16T09:25:25.319Z,8.16
2022-11-16T09:30:50.348Z,8.16
2022-11-16T09:36:17.573Z,8.15
2022-11-16T09:41:57.357Z,8.18
2022-11-16T09:47:31.350Z,8.20
2022-11-16T09:53:01.379Z,8.16
2022-11-16T09:58:34.764Z,8.18
2022-11-16T10:04:06.341Z,8.21
2022-11-16T10:09:31.361Z,8.22
2022-11-16T10:15:16.352Z,8.24
2022-11-16T10:20:57.375Z,8.21
2022-11-16T10:26:34.432Z,8.26
2022-11-16T10:32:16.407Z,8.28
2022-11-16T10:37:44.417Z,8.30
2022-11-16T10:43:27.395Z,8.41
2022-11-16T10:49:04.388Z,8.49
2022-11-16T10:54:28.380Z,8.58
2022-11-16T11:00:02.402Z,8.63
2022-11-16T11:05:31.371Z,8.70
2022-11-16T11:10:57.381Z,8.72
2022-11-16T11:16:25.397Z,8.77
2022-11-16T11:21:52.382Z,8.79
2022-11-16T11:27:17.395Z,8.79
2022-11-16T11:32:48.391Z,8.66
2022-11-16T11:38:16.388Z,8.67
2022-11-16T11:43:44.422Z,8.64
2022-11-16T11:49:15.435Z,8.59
2022-11-16T11:54:48.401Z,8.56
2022-11-16T12:00:17.391Z,8.49
2022-11-16T12:06:00.408Z,8.45
2022-11-16T12:11:39.680Z,8.41
2022-11-16T12:17:09.484Z,8.36
2022-11-16T12:22:55.776Z,8.35
2022-11-16T12:28:40.430Z,8.37
2022-11-16T12:34:13.419Z,8.40
2022-11-16T12:39:43.438Z,8.41
2022-11-16T12:45:32.045Z,8.40
2022-11-16T12:51:06.430Z,8.35
2022-11-16T12:56:48.522Z,8.33
2022-11-16T13:02:27.446Z,8.32
2022-11-16T13:07:56.440Z,8.31
2022-11-16T13:13:39.478Z,8.27
2022-11-16T13:19:09.424Z,8.24
2022-11-16T13:24:48.466Z,8.28
2022-11-16T13:30:23.466Z,8.28
2022-11-16T13:35:52.488Z,8.28
2022-11-16T13:41:40.462Z,8.30
2022-11-16T13:47:10.469Z,8.31
2022-11-16T13:58:38.461Z,8.39
2022-11-16T14:04:44.447Z,8.42
2022-11-16T14:10:14.485Z,8.37
2022-11-16T14:15:41.525Z,8.36
2022-11-16T14:21:08.497Z,8.38
2022-11-16T14:26:43.485Z,8.40
2022-11-16T14:32:11.490Z,8.44
2022-11-16T14:37:48.490Z,8.47
2022-11-16T14:43:24.626Z,8.45
2022-11-16T14:48:50.505Z,8.43
2022-11-16T14:54:25.534Z,8.41
2022-11-16T14:59:52.498Z,8.41
2022-11-16T15:05:30.508Z,8.42
2022-11-16T15:10:57.529Z,8.43
2022-11-16T15:16:32.510Z,8.45
2022-11-16T15:22:02.518Z,8.47
2022-11-16T15:27:38.496Z,8.50
2022-11-16T15:33:06.608Z,8.50
2022-11-16T15:38:33.519Z,8.51
2022-11-16T15:44:14.008Z,8.47
2022-11-16T15:49:46.551Z,8.45
2022-11-16T15:55:14.569Z,8.31
2022-11-16T16:00:41.505Z,8.20
2022-11-16T16:06:09.544Z,8.01
2022-11-16T16:11:43.547Z,7.89
2022-11-16T16:17:09.533Z,7.85
2022-11-16T16:22:43.568Z,7.82
2022-11-16T16:28:09.521Z,7.83
2022-11-16T16:33:36.930Z,7.82
2022-11-16T16:39:04.556Z,7.78
2022-11-16T16:44:30.553Z,7.71
2022-11-16T16:49:56.587Z,7.72
2022-11-16T16:55:24.559Z,7.72
2022-11-16T17:00:49.742Z,7.64
2022-11-16T17:06:15.563Z,7.53
2022-11-16T17:11:43.575Z,7.56
2022-11-16T17:17:07.558Z,7.48
2022-11-16T17:22:39.622Z,7.48
2022-11-16T17:28:07.610Z,7.45
2022-11-16T17:33:32.791Z,7.44
2022-11-16T17:38:57.582Z,7.44
2022-11-16T17:44:26.617Z,7.47
2022-11-16T17:49:52.598Z,7.45
2022-11-16T17:55:17.790Z,7.42
2022-11-16T18:00:45.605Z,7.42
2022-11-16T18:06:19.597Z,7.39
2022-11-16T18:11:45.582Z,7.38
2022-11-16T18:17:12.692Z,7.33
2022-11-16T18:22:37.581Z,7.29
2022-11-16T18:28:06.620Z,7.23
2022-11-16T18:33:34.742Z,7.20
2022-11-16T18:38:58.647Z,7.17
2022-11-16T18:44:23.615Z,7.18
2022-11-16T18:49:50.617Z,7.18
2022-11-16T18:55:16.633Z,7.18
2022-11-16T19:00:40.672Z,7.09
2022-11-16T19:06:16.638Z,7.11
2022-11-16T19:11:41.626Z,7.08
2022-11-16T19:17:05.622Z,7.08
2022-11-16T19:22:33.613Z,7.09
2022-11-16T19:27:57.679Z,7.13
2022-11-16T19:33:24.626Z,7.15
2022-11-16T19:38:52.628Z,7.17
2022-11-16T19:44:17.661Z,7.16
2022-11-16T19:49:42.636Z,7.11
2022-11-16T19:55:10.653Z,7.10
2022-11-16T20:00:35.714Z,7.13
2022-11-16T20:06:00.649Z,7.17
2022-11-16T20:11:33.746Z,7.16
2022-11-16T20:16:59.671Z,7.16
2022-11-16T20:22:23.696Z,7.14
2022-11-16T20:27:51.671Z,7.11
2022-11-16T20:33:15.665Z,7.13
2022-11-16T20:38:45.690Z,7.11
2022-11-16T20:44:16.561Z,7.06
2022-11-16T20:49:42.773Z,6.99
2022-11-16T20:55:06.675Z,7.00
2022-11-16T21:00:34.658Z,6.91
2022-11-16T21:06:00.681Z,6.87
2022-11-16T21:11:27.849Z,6.81
2022-11-16T21:16:55.703Z,6.81
2022-11-16T21:22:20.694Z,6.78
2022-11-16T21:27:46.694Z,6.75
2022-11-16T21:33:14.683Z,6.73
2022-11-16T21:38:40.705Z,6.72
2022-11-16T21:44:05.708Z,6.70
2022-11-16T21:49:32.690Z,6.70
2022-11-16T21:55:02.704Z,6.63
2022-11-16T22:00:28.677Z,6.60
2022-11-16T22:06:11.571Z,6.54
2022-11-16T22:11:35.688Z,6.52
2022-11-16T22:17:00.693Z,6.52
2022-11-16T22:22:27.708Z,6.50
2022-11-16T22:28:19.684Z,6.47
2022-11-16T22:33:41.838Z,6.45
2022-11-16T22:39:10.934Z,6.46
2022-11-16T22:44:34.752Z,6.41
2022-11-16T22:50:00.805Z,6.39
2022-11-16T22:55:27.717Z,6.35
2022-11-16T23:00:53.021Z,6.33
2022-11-16T23:06:16.737Z,6.31
2022-11-16T23:11:56.717Z,6.36
2022-11-16T23:17:21.717Z,6.30
2022-11-16T23:22:58.750Z,6.27
2022-11-16T23:28:29.752Z,6.26
2022-11-16T23:33:54.772Z,6.22
2022-11-16T23:39:18.757Z,6.19
2022-11-16T23:44:46.771Z,6.16
2022-11-16T23:50:11.751Z,6.10
2022-11-16T23:55:37.755Z,6.07
